Terminal Aerodrome Forecast
Issued by NWS Wichita, KS

Home | Current Version | Previous Version | Graphics & Text | Print | Product List | Glossary On
Versions: 1 2 3 4 5 6 7 8 9 10 11 12 13 14 15 16 17 18 19 20
000
FTUS43 KICT 072300
TAFICT
TAF
KICT 072320Z 0800/0824 20016G23KT P6SM SKC
     FM080500 21008KT P6SM SCT100 BKN250
     FM081000 02014KT P6SM BKN120
     FM081500 02015G23KT P6SM BKN150
     FM082200 01011KT P6SM BKN200=

USA.gov is the U.S. government's official web portal to all federal, state and local government web resources and services.